Time;durP1;ratioP1;P1;durP2;ratioP2;P2;SDS_P1;SDS_P2;PMS_P1;PMS_P2;Temp;Humidity;BMP_temperature;BMP_pressure;BME280_temperature;BME280_humidity;BME280_pressure;Samples;Min_cycle;Max_cycle;Signal;HPM_P1;HPM_P2
2022/01/18 00:00:23;;;;;;;16.40;3.97;;;6.00;99.90;;;;;;4982417;28;20495;-82
2022/01/18 00:02:49;;;;;;;26.70;4.55;;;5.90;99.90;;;;;;4979997;28;20042;-80
2022/01/18 00:05:16;;;;;;;30.95;3.95;;;5.90;99.90;;;;;;4976904;28;20035;-83
2022/01/18 00:07:43;;;;;;;36.47;4.88;;;5.90;99.90;;;;;;4977741;28;20483;-82
2022/01/18 00:10:10;;;;;;;27.65;3.13;;;5.90;99.90;;;;;;4978721;28;20078;-81
2022/01/18 00:18:13;;;;;;;21.75;4.00;;;5.90;99.90;;;;;;4980246;28;20107;-81
2022/01/18 00:20:56;;;;;;;32.78;4.80;;;6.00;99.90;;;;;;4977975;28;20030;-80
2022/01/18 00:23:22;;;;;;;20.90;4.47;;;5.90;99.90;;;;;;4977401;28;20035;-80
2022/01/18 00:25:52;;;;;;;27.80;3.78;;;5.90;99.90;;;;;;4975963;28;20483;-79
2022/01/18 00:28:19;;;;;;;25.55;3.78;;;5.90;99.90;;;;;;4974405;28;20030;-81
2022/01/18 00:36:23;;;;;;;19.90;4.75;;;5.90;99.90;;;;;;4979973;28;20031;-81
2022/01/18 00:38:49;;;;;;;21.33;4.00;;;5.80;99.90;;;;;;4971687;28;20086;-80
2022/01/18 00:41:18;;;;;;;22.08;3.92;;;5.80;99.90;;;;;;4976231;28;20489;-80
2022/01/18 00:43:44;;;;;;;22.15;4.32;;;5.80;99.90;;;;;;4977750;28;20077;-80
2022/01/18 00:46:12;;;;;;;14.02;3.83;;;5.80;99.90;;;;;;4975112;28;20042;-81
2022/01/18 00:49:05;;;;;;;15.02;4.28;;;5.80;99.90;;;;;;4974584;28;20462;-82
2022/01/18 00:51:38;;;;;;;22.38;6.20;;;5.70;99.90;;;;;;4974825;28;20483;-82
2022/01/18 00:54:22;;;;;;;19.95;3.88;;;5.70;99.90;;;;;;4955688;28;20047;-81
2022/01/18 00:56:53;;;;;;;18.17;3.30;;;5.70;99.90;;;;;;4966909;28;20471;-81
2022/01/18 00:59:32;;;;;;;23.92;4.20;;;5.70;99.90;;;;;;4957906;28;20078;-81
2022/01/18 01:02:04;;;;;;;16.45;3.03;;;5.70;99.90;;;;;;4970077;28;20415;-80
2022/01/18 01:04:37;;;;;;;16.30;3.67;;;5.70;99.90;;;;;;4975733;28;20042;-82
2022/01/18 01:07:06;;;;;;;21.63;3.13;;;5.70;99.90;;;;;;4975042;28;20399;-82
2022/01/18 01:09:33;;;;;;;20.27;3.28;;;5.70;99.90;;;;;;4977394;28;20475;-80
2022/01/18 01:11:59;;;;;;;21.15;3.00;;;5.60;99.90;;;;;;4976935;28;20018;-80
2022/01/18 01:14:27;;;;;;;10.25;2.83;;;5.60;99.90;;;;;;4975127;28;20113;-80
2022/01/18 01:17:15;;;;;;;16.40;2.85;;;5.60;99.90;;;;;;4973631;28;20015;-80
2022/01/18 01:31:58;;;;;;;12.30;3.67;;;5.60;99.90;;;;;;4975985;28;20527;-81
2022/01/18 01:34:07;;;;;;;18.60;3.55;;;5.50;99.90;;;;;;4977048;28;20037;-81
2022/01/18 01:44:38;;;;;;;17.10;4.22;;;5.50;99.90;;;;;;4976560;28;20085;-81
2022/01/18 01:47:04;;;;;;;;;;;5.40;99.90;;;;;;4976063;28;20035;-81
2022/01/18 01:49:30;;;;;;;13.40;3.75;;;5.40;99.90;;;;;;4975222;28;20060;-81
2022/01/18 01:51:55;;;;;;;8.77;3.65;;;5.40;99.90;;;;;;4976334;28;20458;-81
2022/01/18 01:54:21;;;;;;;7.88;3.28;;;5.40;99.90;;;;;;4976043;28;20026;-81
2022/01/18 01:56:47;;;;;;;14.32;3.92;;;5.40;99.90;;;;;;4974896;28;20088;-80
2022/01/18 01:59:13;;;;;;;12.40;3.40;;;5.40;99.90;;;;;;4974845;28;20050;-80
2022/01/18 02:01:44;;;;;;;12.13;3.70;;;5.40;99.90;;;;;;4976653;28;20471;-81
2022/01/18 02:04:11;;;;;;;16.60;3.97;;;5.30;99.90;;;;;;4975268;28;20018;-81
2022/01/18 02:06:37;;;;;;;12.63;4.30;;;5.30;99.90;;;;;;4974885;28;20042;-82
2022/01/18 02:09:04;;;;;;;15.45;4.65;;;5.20;99.90;;;;;;4976371;28;20031;-81
2022/01/18 02:11:30;;;;;;;22.65;4.35;;;5.20;99.90;;;;;;4975700;28;20034;-82
2022/01/18 02:13:57;;;;;;;9.32;3.70;;;5.20;99.90;;;;;;4976025;28;20085;-81
2022/01/18 02:21:51;;;;;;;10.52;4.40;;;5.10;99.90;;;;;;4976738;28;20444;-81
2022/01/18 02:24:20;;;;;;;6.70;3.50;;;5.10;99.90;;;;;;4973669;28;20043;-81
2022/01/18 02:26:45;;;;;;;;;;;5.00;99.90;;;;;;4975100;28;20550;-81
2022/01/18 02:29:12;;;;;;;11.32;3.65;;;5.00;99.90;;;;;;4974263;28;19914;-81
2022/01/18 02:31:38;;;;;;;13.73;3.92;;;5.00;99.90;;;;;;4975481;28;20019;-81
2022/01/18 02:34:09;;;;;;;12.10;3.70;;;4.90;99.90;;;;;;4974562;28;20026;-81
2022/01/18 02:36:35;;;;;;;8.35;3.55;;;4.90;99.90;;;;;;4974798;28;20026;-80
2022/01/18 02:39:02;;;;;;;6.47;3.58;;;4.90;99.90;;;;;;4974909;28;20046;-80
2022/01/18 02:41:31;;;;;;;8.20;3.63;;;5.00;99.90;;;;;;4973902;28;20097;-80
2022/01/18 02:44:05;;;;;;;6.75;3.70;;;5.00;99.90;;;;;;4975677;28;20027;-80
2022/01/18 02:46:31;;;;;;;9.80;3.55;;;4.90;99.90;;;;;;4974240;28;20030;-80
2022/01/18 02:48:59;;;;;;;12.60;4.13;;;4.90;99.90;;;;;;4974101;28;20027;-81
2022/01/18 02:51:25;;;;;;;6.05;2.58;;;4.90;99.90;;;;;;4975204;28;20034;-81
2022/01/18 02:54:08;;;;;;;8.60;3.63;;;5.00;99.90;;;;;;4976416;28;20026;-81
2022/01/18 02:56:52;;;;;;;5.35;3.10;;;5.00;99.90;;;;;;4973186;28;20069;-81
2022/01/18 02:59:38;;;;;;;6.90;3.97;;;5.00;99.90;;;;;;4977617;28;20491;-81
2022/01/18 03:05:06;;;;;;;7.15;3.35;;;5.00;99.90;;;;;;4972827;28;20038;-81
2022/01/18 03:07:33;;;;;;;10.00;3.38;;;5.10;99.90;;;;;;4977397;28;20027;-81
2022/01/18 03:09:59;;;;;;;8.02;4.22;;;5.10;99.90;;;;;;4978647;28;20066;-81
2022/01/18 03:12:24;;;;;;;18.23;4.45;;;5.20;99.90;;;;;;4977235;28;20022;-81
2022/01/18 03:14:50;;;;;;;11.07;3.80;;;5.20;99.90;;;;;;4977979;28;20023;-81
2022/01/18 03:17:16;;;;;;;9.25;3.65;;;5.20;99.90;;;;;;4978461;28;20082;-80
2022/01/18 03:19:42;;;;;;;11.15;3.95;;;5.20;99.90;;;;;;4978115;28;20054;-80
2022/01/18 03:22:07;;;;;;;7.18;3.35;;;5.20;99.90;;;;;;4978159;28;20454;-81
2022/01/18 03:29:53;;;;;;;4.22;2.47;;;5.20;99.90;;;;;;4978584;28;20034;-81
2022/01/18 03:32:18;;;;;;;5.07;2.55;;;5.30;99.90;;;;;;4977530;28;20030;-81
2022/01/18 03:34:44;;;;;;;9.18;3.33;;;5.20;99.90;;;;;;4976925;28;20103;-81
2022/01/18 03:37:10;;;;;;;3.42;2.60;;;5.20;99.90;;;;;;4978463;28;20030;-80
2022/01/18 03:39:35;;;;;;;4.07;2.67;;;5.20;99.90;;;;;;4977380;28;20019;-79
2022/01/18 03:45:02;;;;;;;;;;;5.30;99.90;;;;;;4956459;28;20034;-81
2022/01/18 03:47:33;;;;;;;3.90;2.80;;;5.30;99.90;;;;;;4977664;28;19910;-81
2022/01/18 03:50:00;;;;;;;8.00;2.80;;;5.30;99.90;;;;;;4962431;28;20039;-81
2022/01/18 03:52:26;;;;;;;4.50;2.88;;;5.20;99.90;;;;;;4979060;28;20023;-81
2022/01/18 03:54:52;;;;;;;6.10;2.58;;;5.20;99.90;;;;;;4979339;28;20045;-81
2022/01/18 03:57:18;;;;;;;4.82;2.50;;;5.20;99.90;;;;;;4979946;28;20062;-81
2022/01/18 03:59:45;;;;;;;4.82;2.85;;;5.20;99.90;;;;;;4977470;28;20046;-81
2022/01/18 04:02:12;;;;;;;9.23;2.63;;;5.20;99.90;;;;;;4991350;28;20023;-81
2022/01/18 04:04:38;;;;;;;5.25;2.95;;;5.20;99.90;;;;;;4991100;28;20114;-80
2022/01/18 04:07:05;;;;;;;3.22;2.22;;;5.20;99.90;;;;;;5010185;28;20530;-81
2022/01/18 04:09:30;;;;;;;3.65;2.20;;;5.20;99.90;;;;;;4993625;28;20038;-81
2022/01/18 04:11:56;;;;;;;3.53;2.13;;;5.20;99.90;;;;;;4991500;28;20033;-81
2022/01/18 04:14:23;;;;;;;6.40;2.25;;;5.20;99.90;;;;;;5017315;28;20025;-80
2022/01/18 04:17:34;;;;;;;10.57;2.70;;;5.20;99.90;;;;;;5003672;28;20026;-80
2022/01/18 04:27:46;;;;;;;6.40;3.13;;;5.20;99.90;;;;;;5019279;28;20017;-81
2022/01/18 04:30:12;;;;;;;5.43;2.50;;;5.10;99.90;;;;;;5001865;28;20061;-80
2022/01/18 04:32:37;;;;;;;3.22;2.42;;;5.10;99.90;;;;;;5020650;28;20043;-80
2022/01/18 04:35:03;;;;;;;4.50;2.10;;;5.20;99.90;;;;;;5020360;28;20042;-80
2022/01/18 04:37:29;;;;;;;4.20;2.55;;;5.20;99.90;;;;;;5014353;28;20027;-80
2022/01/18 04:39:55;;;;;;;3.78;2.55;;;5.20;99.90;;;;;;5000530;28;20075;-80
2022/01/18 04:43:00;;;;;;;3.70;2.67;;;5.20;99.90;;;;;;5001163;28;20038;-80
2022/01/18 04:51:03;;;;;;;5.00;2.97;;;5.30;99.90;;;;;;5001364;28;20034;-81
2022/01/18 04:53:31;;;;;;;7.90;2.47;;;5.30;99.90;;;;;;4988020;28;20015;-80
2022/01/18 04:56:00;;;;;;;5.03;2.45;;;5.30;99.90;;;;;;5000486;28;20022;-79
2022/01/18 04:58:26;;;;;;;4.85;2.50;;;5.30;99.90;;;;;;5000694;28;20026;-79
2022/01/18 05:00:55;;;;;;;4.13;2.45;;;5.30;99.90;;;;;;5000859;28;20058;-81
2022/01/18 05:03:21;;;;;;;4.72;2.70;;;5.30;99.90;;;;;;5000964;28;20058;-80
2022/01/18 05:05:49;;;;;;;3.60;2.08;;;5.20;99.90;;;;;;5000709;28;20023;-80
2022/01/18 05:08:15;;;;;;;4.07;2.22;;;5.30;99.90;;;;;;4999608;28;20070;-80
2022/01/18 05:10:42;;;;;;;5.50;2.30;;;5.30;99.90;;;;;;5000607;28;20038;-80
2022/01/18 05:13:22;;;;;;;4.32;2.50;;;5.30;99.90;;;;;;5000612;28;20046;-80
2022/01/18 05:15:56;;;;;;;9.63;2.88;;;5.30;99.90;;;;;;4999652;28;20011;-80
2022/01/18 05:23:34;;;;;;;3.45;1.77;;;5.40;99.90;;;;;;5000011;28;20026;-80
2022/01/18 05:26:00;;;;;;;8.77;2.38;;;5.40;99.90;;;;;;5000093;28;20011;-80
2022/01/18 05:28:25;;;;;;;6.00;2.50;;;5.40;99.90;;;;;;4999372;28;20003;-81
2022/01/18 05:30:51;;;;;;;8.32;2.92;;;5.50;99.90;;;;;;4999616;28;20027;-78
2022/01/18 05:33:18;;;;;;;12.50;3.13;;;5.50;99.90;;;;;;4995577;28;20046;-80
2022/01/18 05:35:44;;;;;;;5.90;2.53;;;5.50;99.90;;;;;;4984782;28;20081;-81
2022/01/18 05:38:10;;;;;;;6.53;3.17;;;5.50;99.90;;;;;;4984423;28;20046;-81
2022/01/18 05:40:37;;;;;;;11.95;3.50;;;5.60;99.90;;;;;;4984864;28;20026;-81
2022/01/18 05:43:22;;;;;;;8.03;3.73;;;5.60;99.90;;;;;;4978994;28;20034;-81
2022/01/18 05:45:48;;;;;;;12.88;3.38;;;5.50;99.90;;;;;;4982971;28;20022;-80
2022/01/18 05:48:13;;;;;;;10.32;3.97;;;5.50;99.90;;;;;;4979876;28;20034;-81
2022/01/18 05:50:39;;;;;;;10.48;4.00;;;5.50;99.90;;;;;;4980152;28;20031;-82
2022/01/18 05:53:05;;;;;;;10.25;3.45;;;5.40;99.90;;;;;;4975672;28;20043;-81
2022/01/18 05:55:31;;;;;;;11.52;4.30;;;5.40;99.90;;;;;;4978430;28;20027;-81
2022/01/18 05:57:57;;;;;;;7.05;3.17;;;5.40;99.90;;;;;;4978413;28;20022;-80
2022/01/18 06:00:24;;;;;;;10.07;3.45;;;5.30;99.90;;;;;;4976689;28;20402;-80
2022/01/18 06:08:08;;;;;;;17.10;3.72;;;5.10;99.90;;;;;;4977076;28;20058;-81
2022/01/18 06:10:34;;;;;;;9.10;3.70;;;5.10;99.90;;;;;;4973847;28;20057;-81
2022/01/18 06:13:02;;;;;;;11.05;3.47;;;5.00;99.90;;;;;;4975878;28;20055;-81
2022/01/18 06:15:28;;;;;;;8.27;4.03;;;5.00;99.90;;;;;;4972451;28;20387;-80
2022/01/18 06:17:54;;;;;;;7.32;3.08;;;5.00;99.90;;;;;;4973929;28;20026;-81
2022/01/18 06:20:23;;;;;;;10.05;3.13;;;5.00;99.90;;;;;;4972190;28;20125;-81
2022/01/18 06:22:51;;;;;;;4.15;2.80;;;4.90;99.90;;;;;;4974249;28;20030;-81
2022/01/18 06:25:36;;;;;;;7.22;2.90;;;4.90;99.90;;;;;;4974693;28;20062;-81
2022/01/18 06:28:01;;;;;;;3.95;2.50;;;4.90;99.90;;;;;;4962312;28;20035;-81
2022/01/18 06:30:27;;;;;;;9.82;3.47;;;4.90;99.90;;;;;;4974201;28;20098;-80
2022/01/18 06:32:52;;;;;;;6.70;2.90;;;4.90;99.90;;;;;;4973815;28;20033;-81
2022/01/18 06:35:18;;;;;;;9.48;3.58;;;4.90;99.90;;;;;;4973581;28;20081;-81
2022/01/18 06:37:44;;;;;;;4.70;2.92;;;4.90;99.90;;;;;;4969538;28;20035;-82
2022/01/18 06:40:12;;;;;;;6.80;2.90;;;4.90;99.90;;;;;;4973298;28;20483;-82
2022/01/18 06:42:38;;;;;;;5.75;3.03;;;4.90;99.90;;;;;;4974903;28;20042;-81
2022/01/18 06:45:04;;;;;;;5.95;2.75;;;4.90;99.90;;;;;;4975027;28;20120;-81
2022/01/18 06:47:30;;;;;;;4.30;2.70;;;4.90;99.90;;;;;;4975444;28;20026;-81
2022/01/18 06:49:55;;;;;;;5.00;2.60;;;4.90;99.90;;;;;;4975159;28;20034;-81
2022/01/18 06:52:21;;;;;;;5.22;2.88;;;4.90;99.90;;;;;;4973747;28;20023;-81
2022/01/18 06:54:47;;;;;;;4.03;2.60;;;4.90;99.90;;;;;;4975173;28;20082;-80
2022/01/18 06:57:13;;;;;;;7.53;3.42;;;4.90;99.90;;;;;;4979475;28;20022;-82
2022/01/18 06:59:39;;;;;;;6.30;2.75;;;4.90;99.90;;;;;;4974483;28;20101;-82
2022/01/18 07:02:05;;;;;;;7.93;2.90;;;5.00;99.90;;;;;;4974315;28;20078;-82
2022/01/18 07:04:31;;;;;;;6.75;3.40;;;5.00;99.90;;;;;;4973949;28;20105;-81
2022/01/18 07:06:57;;;;;;;5.40;2.55;;;5.00;99.90;;;;;;4975391;28;20031;-82
2022/01/18 07:09:23;;;;;;;5.25;3.17;;;4.90;99.90;;;;;;4973966;28;20041;-81
2022/01/18 07:11:54;;;;;;;7.50;3.13;;;5.00;99.90;;;;;;4973903;28;20031;-81
2022/01/18 07:14:21;;;;;;;6.35;3.13;;;5.00;99.90;;;;;;4975646;28;20575;-81
2022/01/18 07:16:46;;;;;;;7.68;3.50;;;5.10;99.90;;;;;;4976470;28;20510;-81
2022/01/18 07:19:13;;;;;;;6.20;2.72;;;5.00;99.90;;;;;;4960220;28;20023;-81
2022/01/18 07:21:38;;;;;;;3.70;2.25;;;5.10;99.90;;;;;;4974130;28;20023;-81
2022/01/18 07:24:14;;;;;;;7.97;3.13;;;5.10;99.90;;;;;;4973353;28;20027;-80
2022/01/18 07:26:39;;;;;;;6.45;2.33;;;5.00;99.90;;;;;;4974215;28;20015;-79
2022/01/18 07:29:05;;;;;;;5.45;2.75;;;5.00;99.90;;;;;;4973397;28;20476;-80
2022/01/18 07:31:31;;;;;;;6.72;2.88;;;5.00;99.90;;;;;;4972590;28;20161;-83
2022/01/18 07:33:56;;;;;;;10.48;2.63;;;4.90;99.90;;;;;;4974449;28;20034;-82
2022/01/18 07:36:22;;;;;;;11.30;2.83;;;5.00;99.90;;;;;;4973481;28;20575;-79
2022/01/18 07:38:47;;;;;;;11.85;3.10;;;5.10;99.90;;;;;;4973527;28;20039;-80
2022/01/18 07:41:13;;;;;;;6.28;2.60;;;5.10;99.90;;;;;;4977271;28;20503;-81
2022/01/18 07:43:40;;;;;;;7.78;3.03;;;5.10;99.90;;;;;;4977700;28;20106;-81
2022/01/18 07:46:06;;;;;;;7.68;2.95;;;5.10;99.90;;;;;;4977488;28;20034;-82
2022/01/18 07:48:32;;;;;;;13.32;3.53;;;5.10;99.90;;;;;;4974311;28;20039;-82
2022/01/18 07:50:58;;;;;;;7.47;3.30;;;5.10;99.90;;;;;;4973583;28;20082;-81
2022/01/18 07:53:25;;;;;;;11.48;3.67;;;5.00;99.90;;;;;;4978304;28;20023;-81
2022/01/18 07:55:51;;;;;;;8.82;3.85;;;5.00;99.90;;;;;;4978485;28;20027;-80
2022/01/18 07:58:17;;;;;;;8.85;3.65;;;5.00;99.90;;;;;;4978070;28;20019;-81
2022/01/18 08:00:43;;;;;;;18.02;4.35;;;5.00;99.90;;;;;;4977024;28;20065;-81
2022/01/18 08:03:09;;;;;;;7.97;4.15;;;5.00;99.90;;;;;;4979097;28;20059;-80
2022/01/18 08:05:35;;;;;;;7.78;3.80;;;5.00;99.90;;;;;;4979889;28;20058;-83
2022/01/18 08:08:02;;;;;;;7.28;3.28;;;4.90;99.90;;;;;;4982993;28;20027;-81
2022/01/18 08:10:30;;;;;;;13.68;4.07;;;4.90;99.90;;;;;;4981382;28;20118;-82
2022/01/18 08:13:02;;;;;;;9.95;3.80;;;4.90;99.90;;;;;;4982070;28;20090;-82
2022/01/18 08:15:38;;;;;;;10.32;3.42;;;4.90;99.90;;;;;;4980958;28;20099;-82
2022/01/18 08:18:08;;;;;;;6.93;3.75;;;4.90;99.90;;;;;;4979827;28;20041;-80
2022/01/18 08:20:34;;;;;;;11.38;4.70;;;4.80;99.90;;;;;;4983044;28;20033;-81
2022/01/18 08:23:01;;;;;;;8.32;4.38;;;4.80;99.90;;;;;;4982671;28;20102;-81
2022/01/18 08:25:27;;;;;;;7.82;3.53;;;4.80;99.90;;;;;;4980360;28;20034;-83
2022/01/18 08:27:52;;;;;;;10.60;4.40;;;4.90;99.90;;;;;;4976702;28;20043;-83
2022/01/18 08:30:19;;;;;;;6.70;3.40;;;5.00;99.90;;;;;;4977309;28;20110;-82
2022/01/18 08:32:46;;;;;;;7.82;3.70;;;5.00;99.90;;;;;;4975936;28;20483;-81
2022/01/18 08:35:12;;;;;;;11.90;3.63;;;5.10;99.90;;;;;;4968236;28;20029;-81
2022/01/18 08:37:39;;;;;;;14.27;4.43;;;5.10;99.90;;;;;;4976860;28;20042;-84
2022/01/18 08:40:05;;;;;;;8.02;3.72;;;5.10;99.90;;;;;;4976497;28;20046;-82
2022/01/18 08:42:32;;;;;;;9.27;3.65;;;5.10;99.90;;;;;;4974180;28;20035;-83
2022/01/18 08:44:58;;;;;;;7.75;3.60;;;5.10;99.90;;;;;;4977392;28;20062;-80
2022/01/18 08:47:27;;;;;;;8.70;2.65;;;5.10;99.90;;;;;;4979654;28;20506;-84
2022/01/18 08:49:59;;;;;;;7.18;3.47;;;5.10;99.90;;;;;;4977736;28;20448;-83
2022/01/18 08:52:24;;;;;;;3.65;2.35;;;5.10;99.90;;;;;;4976061;28;20023;-80
2022/01/18 08:54:50;;;;;;;6.25;2.85;;;5.20;99.90;;;;;;4975557;28;20131;-80
2022/01/18 08:57:16;;;;;;;8.70;2.80;;;5.10;99.90;;;;;;4975505;28;20023;-82
2022/01/18 08:59:43;;;;;;;10.73;3.13;;;5.10;99.90;;;;;;4976884;28;20062;-82
2022/01/18 09:02:10;;;;;;;6.57;3.03;;;5.10;99.90;;;;;;4977195;28;20089;-84
2022/01/18 09:04:36;;;;;;;9.70;3.00;;;5.10;99.90;;;;;;4977564;28;20022;-82
2022/01/18 09:07:07;;;;;;;3.58;2.45;;;5.10;99.90;;;;;;4977210;28;20035;-82
2022/01/18 09:09:38;;;;;;;16.02;3.00;;;5.20;99.90;;;;;;4976110;28;20034;-81
2022/01/18 09:12:05;;;;;;;5.07;2.28;;;5.20;99.90;;;;;;4975769;28;20121;-84
2022/01/18 09:14:31;;;;;;;5.03;2.20;;;5.30;99.90;;;;;;4976277;28;20022;-83
2022/01/18 09:16:56;;;;;;;6.40;2.92;;;5.30;99.90;;;;;;4975776;28;20031;-80
2022/01/18 09:19:22;;;;;;;6.22;2.83;;;5.30;99.90;;;;;;4976250;28;20585;-80
2022/01/18 09:21:49;;;;;;;6.05;2.22;;;5.30;99.90;;;;;;4975383;28;20054;-80
2022/01/18 09:24:16;;;;;;;6.03;2.90;;;5.40;99.90;;;;;;4974019;28;20025;-80
2022/01/18 09:26:42;;;;;;;8.13;2.85;;;5.50;99.90;;;;;;4960003;28;20510;-79
2022/01/18 09:29:10;;;;;;;8.13;3.25;;;5.40;99.90;;;;;;4970230;28;20173;-83
2022/01/18 09:31:39;;;;;;;5.40;2.93;;;5.30;99.90;;;;;;4973364;28;20603;-81
2022/01/18 09:34:05;;;;;;;8.43;3.38;;;5.30;99.90;;;;;;4973202;28;20290;-81
2022/01/18 09:36:50;;;;;;;7.30;3.08;;;5.30;99.90;;;;;;4958940;28;20476;-79
2022/01/18 09:39:16;;;;;;;9.88;3.40;;;5.30;99.90;;;;;;4957894;28;20122;-81
2022/01/18 09:41:46;;;;;;;8.63;3.80;;;5.30;99.90;;;;;;4969730;28;20283;-80
2022/01/18 09:44:12;;;;;;;6.95;3.72;;;5.40;99.90;;;;;;4973988;28;20096;-80
2022/01/18 09:46:38;;;;;;;7.68;3.53;;;5.50;99.90;;;;;;4974983;28;20557;-81
2022/01/18 09:49:05;;;;;;;8.63;3.45;;;5.50;99.90;;;;;;4974808;28;20038;-82
2022/01/18 09:51:31;;;;;;;14.63;3.60;;;5.60;99.90;;;;;;4973473;28;20035;-80
2022/01/18 09:53:57;;;;;;;7.97;3.33;;;5.60;99.90;;;;;;4973440;28;20034;-81
2022/01/18 09:56:24;;;;;;;8.10;3.53;;;5.70;99.90;;;;;;4974119;28;20102;-80
2022/01/18 09:58:50;;;;;;;10.02;3.35;;;5.70;99.90;;;;;;4974622;28;20018;-79
2022/01/18 10:01:15;;;;;;;12.80;3.20;;;5.60;99.90;;;;;;4972551;28;20380;-82
2022/01/18 10:03:41;;;;;;;7.15;2.55;;;5.60;99.90;;;;;;4974104;28;20503;-81
2022/01/18 10:06:09;;;;;;;7.40;2.30;;;5.70;99.90;;;;;;4973751;28;20125;-80
2022/01/18 10:08:41;;;;;;;8.75;2.80;;;5.70;99.90;;;;;;4971925;28;20462;-81
2022/01/18 10:11:17;;;;;;;14.18;3.35;;;5.80;99.90;;;;;;4973738;28;20069;-80
2022/01/18 10:13:46;;;;;;;5.65;2.78;;;5.70;99.90;;;;;;4973359;28;20031;-80
2022/01/18 10:16:14;;;;;;;7.15;3.40;;;5.70;99.90;;;;;;4973246;28;20015;-81
2022/01/18 10:18:48;;;;;;;6.57;3.40;;;5.80;99.90;;;;;;4973907;28;20360;-80
2022/01/18 10:21:28;;;;;;;16.98;3.60;;;5.80;99.90;;;;;;4973971;28;20027;-81
2022/01/18 10:24:09;;;;;;;7.82;3.13;;;5.90;99.90;;;;;;4974503;28;20038;-81
2022/01/18 10:26:41;;;;;;;14.40;2.95;;;5.80;99.90;;;;;;4973566;28;20380;-82
2022/01/18 10:29:08;;;;;;;10.60;2.77;;;5.80;99.90;;;;;;4973872;28;20491;-80
2022/01/18 10:31:45;;;;;;;28.10;3.30;;;5.80;99.90;;;;;;4971310;28;20078;-80
2022/01/18 10:37:13;;;;;;;14.93;3.90;;;5.90;99.90;;;;;;4956411;28;20062;-84
2022/01/18 10:39:49;;;;;;;34.15;3.95;;;6.00;99.90;;;;;;4972371;28;20502;-84
2022/01/18 10:42:39;;;;;;;8.93;2.78;;;6.00;99.90;;;;;;4974531;28;20053;-80
2022/01/18 10:45:12;;;;;;;13.32;2.85;;;6.00;99.90;;;;;;4974067;28;20023;-80
2022/01/18 10:47:46;;;;;;;13.23;2.97;;;6.00;99.90;;;;;;4964141;28;20027;-81
2022/01/18 10:50:16;;;;;;;12.27;3.28;;;6.00;99.90;;;;;;4977082;28;20050;-81
2022/01/18 10:52:42;;;;;;;6.53;3.13;;;6.00;99.90;;;;;;4977928;28;20530;-80
2022/01/18 10:55:15;;;;;;;12.57;3.35;;;6.20;99.90;;;;;;4970213;28;20145;-80
2022/01/18 10:57:41;;;;;;;9.18;3.53;;;6.20;99.90;;;;;;4973230;28;20020;-80
2022/01/18 11:00:21;;;;;;;10.75;2.95;;;6.20;99.90;;;;;;4973396;28;20047;-79
2022/01/18 11:02:52;;;;;;;17.70;3.28;;;6.30;99.90;;;;;;4973633;28;20105;-81
2022/01/18 11:05:27;;;;;;;8.35;2.60;;;6.30;99.90;;;;;;4971579;28;20031;-80
2022/01/18 11:07:55;;;;;;;12.48;3.33;;;6.30;99.90;;;;;;4971487;28;20031;-80
2022/01/18 11:10:24;;;;;;;9.07;3.20;;;6.30;99.90;;;;;;4970039;28;20079;-78
2022/01/18 11:13:22;;;;;;;11.60;3.90;;;6.20;99.90;;;;;;4972202;28;20035;-80
2022/01/18 11:16:12;;;;;;;5.53;3.95;;;6.30;99.90;;;;;;4972284;28;20038;-80
2022/01/18 11:18:37;;;;;;;10.82;3.33;;;6.30;99.90;;;;;;4977953;28;20033;-80
2022/01/18 11:21:05;;;;;;;5.40;3.30;;;6.30;99.90;;;;;;4977994;28;20402;-80
2022/01/18 11:23:34;;;;;;;8.98;3.55;;;6.40;99.90;;;;;;4979521;28;20035;-82
2022/01/18 11:26:00;;;;;;;7.15;3.25;;;6.50;99.90;;;;;;4972719;28;20026;-81
2022/01/18 11:28:26;;;;;;;6.28;3.72;;;6.50;99.90;;;;;;4978763;28;20466;-80
2022/01/18 11:30:52;;;;;;;5.57;3.80;;;6.50;99.90;;;;;;4978587;28;20041;-79
2022/01/18 11:33:23;;;;;;;9.05;4.22;;;6.60;99.90;;;;;;4979323;28;20118;-79
2022/01/18 11:36:06;;;;;;;17.10;5.38;;;6.60;99.90;;;;;;4973158;28;20047;-80
2022/01/18 11:38:53;;;;;;;12.98;5.65;;;6.60;99.90;;;;;;4979777;28;20070;-80
2022/01/18 11:41:32;;;;;;;10.77;5.13;;;6.70;99.90;;;;;;4979219;28;20130;-80
2022/01/18 11:44:20;;;;;;;13.35;5.82;;;6.70;99.90;;;;;;4979340;28;20055;-80
2022/01/18 11:46:55;;;;;;;17.88;7.63;;;6.70;99.90;;;;;;4979878;28;20037;-80
2022/01/18 11:49:30;;;;;;;19.65;7.07;;;6.80;99.90;;;;;;4978312;28;20039;-80
2022/01/18 11:52:00;;;;;;;21.40;8.40;;;6.70;99.90;;;;;;4979936;28;20022;-80
2022/01/18 11:54:45;;;;;;;26.98;8.98;;;6.70;99.90;;;;;;4978055;28;20027;-82
2022/01/18 11:57:22;;;;;;;31.25;9.57;;;6.80;99.90;;;;;;4978340;28;20450;-82
2022/01/18 11:59:54;;;;;;;32.72;10.88;;;6.80;99.90;;;;;;4975419;28;20065;-83
2022/01/18 12:02:39;;;;;;;24.67;10.18;;;6.80;99.90;;;;;;4972461;28;20031;-82
2022/01/18 12:05:14;;;;;;;35.72;9.40;;;6.70;99.90;;;;;;4974122;28;20042;-80
2022/01/18 12:07:41;;;;;;;31.33;10.73;;;6.70;99.90;;;;;;4971397;28;20027;-80
2022/01/18 12:10:27;;;;;;;43.33;9.35;;;6.70;99.90;;;;;;4973972;28;20085;-82
2022/01/18 12:12:54;;;;;;;34.28;11.38;;;6.70;99.90;;;;;;4976939;28;20038;-81
2022/01/18 12:15:23;;;;;;;32.15;11.25;;;6.70;99.90;;;;;;4976385;28;20042;-81
2022/01/18 12:17:56;;;;;;;40.83;11.52;;;6.80;99.90;;;;;;4978096;28;20115;-81
2022/01/18 12:20:40;;;;;;;31.92;10.20;;;6.80;99.90;;;;;;4961056;28;20037;-82
2022/01/18 12:23:17;;;;;;;35.13;11.75;;;6.90;99.90;;;;;;4985136;28;20027;-82
2022/01/18 12:25:56;;;;;;;33.90;10.07;;;6.90;99.90;;;;;;4989307;28;20035;-81
2022/01/18 12:36:54;;;;;;;47.60;13.68;;;6.90;99.90;;;;;;4998443;28;20057;-81
2022/01/18 12:39:20;;;;;;;51.53;11.95;;;7.00;99.90;;;;;;5000333;28;20110;-81
2022/01/18 12:41:52;;;;;;;40.47;13.13;;;7.10;99.90;;;;;;5000227;28;20026;-80
2022/01/18 12:44:21;;;;;;;56.22;12.50;;;7.10;99.90;;;;;;5000174;28;20011;-79
2022/01/18 12:46:55;;;;;;;46.38;13.07;;;7.10;99.90;;;;;;4998373;28;20031;-78
2022/01/18 12:49:21;;;;;;;43.67;12.27;;;7.10;99.90;;;;;;5000599;28;20016;-78
2022/01/18 12:51:57;;;;;;;47.22;13.25;;;7.20;99.90;;;;;;4998820;28;20033;-79
2022/01/18 12:54:37;;;;;;;45.83;13.10;;;7.20;99.90;;;;;;4998519;28;20042;-79
2022/01/18 12:57:18;;;;;;;37.65;11.68;;;7.30;99.90;;;;;;4996617;28;20027;-79
2022/01/18 12:59:59;;;;;;;47.25;13.10;;;7.30;99.90;;;;;;4999153;28;20043;-79
2022/01/18 13:02:27;;;;;;;51.15;13.52;;;7.40;99.90;;;;;;4999545;28;20115;-79
2022/01/18 13:05:01;;;;;;;48.40;14.60;;;7.40;99.90;;;;;;4998626;28;20026;-78
2022/01/18 13:07:29;;;;;;;54.47;12.77;;;7.40;99.90;;;;;;4998058;28;20055;-79
2022/01/18 13:10:03;;;;;;;42.60;13.77;;;7.50;99.90;;;;;;4998152;28;20027;-78
2022/01/18 13:12:34;;;;;;;41.25;13.45;;;7.50;99.90;;;;;;4999174;28;20030;-79
2022/01/18 13:15:04;;;;;;;29.33;12.02;;;7.60;99.90;;;;;;4983894;28;20031;-79
2022/01/18 13:23:24;;;;;;;35.70;10.52;;;7.60;99.90;;;;;;4998512;28;20082;-79
2022/01/18 13:25:56;;;;;;;41.28;12.68;;;7.60;99.90;;;;;;4998793;28;20019;-79
2022/01/18 13:28:36;;;;;;;41.33;12.57;;;7.60;99.90;;;;;;4994137;28;20030;-79
2022/01/18 13:31:21;;;;;;;54.05;12.68;;;7.60;99.90;;;;;;4998746;28;20106;-78
2022/01/18 13:34:00;;;;;;;51.63;13.05;;;7.60;99.90;;;;;;5011126;28;20062;-80
2022/01/18 13:36:29;;;;;;;32.60;11.90;;;7.70;99.90;;;;;;4997494;28;20023;-79
2022/01/18 13:38:54;;;;;;;40.45;12.88;;;7.80;99.90;;;;;;4994876;28;20050;-80
2022/01/18 13:41:20;;;;;;;31.33;11.70;;;7.70;99.90;;;;;;4984257;28;20058;-79
2022/01/18 13:43:47;;;;;;;41.42;12.20;;;7.80;99.90;;;;;;4996785;28;20019;-80
2022/01/18 13:46:33;;;;;;;39.70;11.10;;;7.90;99.90;;;;;;4992138;28;20039;-81
2022/01/18 13:49:06;;;;;;;36.97;11.60;;;7.90;99.90;;;;;;4987787;28;20022;-80
2022/01/18 13:51:33;;;;;;;44.78;12.35;;;7.90;99.90;;;;;;4988038;28;20034;-80
2022/01/18 13:54:08;;;;;;;34.25;11.48;;;7.90;99.90;;;;;;4985497;28;20450;-81
2022/01/18 13:56:34;;;;;;;37.22;12.10;;;8.00;99.90;;;;;;4983505;28;20041;-81
2022/01/18 13:59:06;;;;;;;42.38;11.68;;;8.00;99.90;;;;;;4972110;28;20415;-82
2022/01/18 14:01:37;;;;;;;35.25;11.88;;;8.00;99.90;;;;;;4974371;28;20043;-81
2022/01/18 14:04:23;;;;;;;40.15;12.13;;;8.00;99.90;;;;;;4973857;28;20039;-81
2022/01/18 14:06:50;;;;;;;33.53;11.07;;;8.10;99.90;;;;;;4976009;28;20483;-81
2022/01/18 14:09:22;;;;;;;44.30;12.82;;;8.20;99.90;;;;;;4976383;28;20030;-83
2022/01/18 14:11:52;;;;;;;32.67;11.07;;;8.20;99.90;;;;;;4974245;28;20085;-81
2022/01/18 14:14:24;;;;;;;45.58;12.15;;;8.20;99.90;;;;;;4975748;28;20046;-80
2022/01/18 14:17:04;;;;;;;48.45;11.50;;;8.20;99.90;;;;;;4967811;28;20105;-81
2022/01/18 14:19:38;;;;;;;36.72;11.60;;;8.20;99.90;;;;;;4976000;28;20022;-81
2022/01/18 14:22:19;;;;;;;38.08;13.02;;;8.20;99.90;;;;;;4975654;28;20411;-80
2022/01/18 14:24:46;;;;;;;41.78;11.85;;;8.20;99.90;;;;;;4974453;28;20034;-79
2022/01/18 14:27:15;;;;;;;34.60;12.00;;;8.20;99.90;;;;;;4975561;28;20430;-81
2022/01/18 14:29:44;;;;;;;37.75;10.95;;;8.20;99.90;;;;;;4972095;28;20035;-81
2022/01/18 14:32:20;;;;;;;28.75;10.75;;;8.20;99.90;;;;;;4974496;28;20039;-81